Time;durP1;ratioP1;P1;durP2;ratioP2;P2;SDS_P1;SDS_P2;PMS_P1;PMS_P2;Temp;Humidity;BMP_temperature;BMP_pressure;BME280_temperature;BME280_humidity;BME280_pressure;Samples;Min_cycle;Max_cycle;Signal;HPM_P1;HPM_P2
2021/11/11 00:01:36;;;;;;;;;;;;;;;22.57;26.99;99634.25;4901815;29;1966;-82
2021/11/11 00:04:02;;;;;;;;;;;;;;;22.32;27.41;99640.84;4941361;29;815;-82
2021/11/11 00:06:29;;;;;;;;;;;;;;;22.11;27.31;99640.91;4978292;29;897;-84
2021/11/11 00:08:54;;;;;;;;;;;;;;;22.15;27.34;99629.56;4962194;29;1029;-84
2021/11/11 00:11:40;;;;;;;;;;;;;;;22.34;27.77;99627.06;4978679;28;962;-83
2021/11/11 00:14:06;;;;;;;;;;;;;;;22.61;27.27;99635.06;4978231;28;970;-83
2021/11/11 00:16:32;;;;;;;;;;;;;;;22.44;27.10;99641.63;4923644;29;915;-83
2021/11/11 00:18:58;;;;;;;;;;;;;;;22.07;27.59;99634.41;4901192;29;1087;-82
2021/11/11 00:21:23;;;;;;;;;;;;;;;22.24;27.43;99629.94;4901858;29;1896;-84
2021/11/11 00:23:49;;;;;;;;;;;;;;;22.18;27.30;99629.56;4900425;29;967;-82
2021/11/11 00:26:36;;;;;;;;;;;;;;;22.34;27.74;99627.06;4919871;29;910;-83
2021/11/11 00:29:02;;;;;;;;;;;;;;;22.57;27.15;99628.56;4904286;29;910;-82
2021/11/11 00:31:28;;;;;;;;;;;;;;;22.23;27.84;99626.31;4919470;29;1057;-83
2021/11/11 00:33:53;;;;;;;;;;;;;;;22.15;27.45;99627.53;4918168;29;959;-83
2021/11/11 00:36:39;;;;;;;;;;;;;;;22.20;27.47;99624.28;4908424;29;936;-83
2021/11/11 00:39:05;;;;;;;;;;;;;;;22.57;27.28;99628.56;4922350;29;888;-82
2021/11/11 00:41:30;;;;;;;;;;;;;;;22.68;27.05;99617.97;4899289;29;1892;-82
2021/11/11 00:43:56;;;;;;;;;;;;;;;22.41;27.11;99614.06;4863578;29;1015;-83
2021/11/11 00:46:41;;;;;;;;;;;;;;;22.16;27.31;99617.81;4886218;29;1154;-83
2021/11/11 00:49:10;;;;;;;;;;;;;;;22.27;27.10;99615.72;4900243;29;984;-83
2021/11/11 00:51:35;;;;;;;;;;;;;;;22.32;27.94;99612.47;4932631;29;1002;-82
2021/11/11 00:54:01;;;;;;;;;;;;;;;22.54;27.36;99607.53;4900129;29;968;-83
2021/11/11 00:56:46;;;;;;;;;;;;;;;22.63;27.26;99598.56;4921281;29;906;-82
2021/11/11 00:59:12;;;;;;;;;;;;;;;22.35;27.59;99600.31;4921669;29;1417;-83
2021/11/11 01:01:37;;;;;;;;;;;;;;;22.21;27.35;99594.69;4945097;28;1958;-83
2021/11/11 01:04:03;;;;;;;;;;;;;;;22.12;27.81;99605.66;4975852;28;1005;-83
2021/11/11 01:06:29;;;;;;;;;;;;;;;22.46;27.61;99599.47;4976888;28;1159;-83
2021/11/11 01:08:55;;;;;;;;;;;;;;;22.70;27.23;99592.84;4976622;28;951;-83
2021/11/11 01:11:21;;;;;;;;;;;;;;;22.56;27.09;99587.25;4977255;29;967;-83
2021/11/11 01:13:46;;;;;;;;;;;;;;;22.38;27.22;99580.84;4975613;29;1157;-82
2021/11/11 01:16:12;;;;;;;;;;;;;;;22.30;27.15;99580.91;4977504;29;1069;-83
2021/11/11 01:18:37;;;;;;;;;;;;;;;22.19;27.42;99582.16;5009908;28;898;-83
2021/11/11 01:21:03;;;;;;;;;;;;;;;22.24;27.86;99588.22;5051503;28;907;-83
2021/11/11 01:23:49;;;;;;;;;;;;;;;22.44;27.30;99571.53;5015121;28;945;-83
2021/11/11 01:26:34;;;;;;;;;;;;;;;22.24;27.89;99568.38;5016372;28;932;-82
2021/11/11 01:29:03;;;;;;;;;;;;;;;22.22;27.83;99573.63;5011395;28;1173;-83
2021/11/11 01:31:30;;;;;;;;;;;;;;;22.09;28.19;99563.94;4996680;28;1240;-84
2021/11/11 01:33:56;;;;;;;;;;;;;;;21.94;28.17;99557.50;4979529;28;1081;-83
2021/11/11 01:36:22;;;;;;;;;;;;;;;22.55;27.69;99558.09;4980645;28;1331;-83
2021/11/11 01:38:55;;;;;;;;;;;;;;;22.63;27.28;99547.47;4979372;28;905;-83
2021/11/11 01:41:24;;;;;;;;;;;;;;;22.39;27.22;99542.78;4980168;28;1883;-83
2021/11/11 01:43:51;;;;;;;;;;;;;;;22.06;28.16;99545.72;4994487;28;1373;-82
2021/11/11 01:46:36;;;;;;;;;;;;;;;22.16;27.83;99541.25;4957197;28;1191;-83
2021/11/11 01:49:02;;;;;;;;;;;;;;;22.20;27.74;99527.88;4931323;29;914;-82
2021/11/11 01:51:30;;;;;;;;;;;;;;;22.37;27.90;99534.66;4918546;29;1154;-83
2021/11/11 01:54:00;;;;;;;;;;;;;;;22.69;27.26;99528.81;4920578;29;1263;-83
2021/11/11 01:56:26;;;;;;;;;;;;;;;22.34;27.63;99530.66;4938003;29;1352;-83
2021/11/11 01:58:56;;;;;;;;;;;;;;;22.32;27.53;99530.22;4959895;29;961;-83
2021/11/11 02:01:21;;;;;;;;;;;;;;;22.03;27.84;99528.75;4943908;29;1887;-83
2021/11/11 02:03:48;;;;;;;;;;;;;;;22.32;27.83;99526.59;4955942;29;1042;-84
2021/11/11 02:06:55;;;;;;;;;;;;;;;22.59;27.37;99524.03;4943180;29;1065;-83
2021/11/11 02:09:27;;;;;;;;;;;;;;;22.41;27.37;99509.13;4969616;28;1228;-83
2021/11/11 02:12:13;;;;;;;;;;;;;;;22.28;27.54;99515.28;4975268;29;952;-83
2021/11/11 02:14:44;;;;;;;;;;;;;;;22.32;27.50;99512.41;4955207;29;1279;-83
2021/11/11 02:17:12;;;;;;;;;;;;;;;22.09;27.88;99513.72;4943749;28;1214;-82
2021/11/11 02:20:06;;;;;;;;;;;;;;;22.23;27.89;99512.09;4887733;29;1048;-83
2021/11/11 02:23:23;;;;;;;;;;;;;;;21.93;28.32;99515.44;4917459;29;1876;-83
2021/11/11 02:25:58;;;;;;;;;;;;;;;22.03;28.30;99508.91;4919114;29;997;-82
2021/11/11 02:28:28;;;;;;;;;;;;;;;22.26;27.66;99506.38;4916750;29;1518;-83
2021/11/11 02:30:54;;;;;;;;;;;;;;;22.56;27.45;99513.50;4895055;29;1225;-82
2021/11/11 02:33:51;;;;;;;;;;;;;;;22.62;27.36;99506.97;4908537;29;1224;-82
2021/11/11 02:36:51;;;;;;;;;;;;;;;22.43;27.54;99509.50;4956671;29;1178;-83
2021/11/11 02:39:17;;;;;;;;;;;;;;;22.27;27.65;99507.97;4953736;29;1003;-83
2021/11/11 02:41:44;;;;;;;;;;;;;;;22.25;27.47;99499.09;4937466;29;1984;-83
2021/11/11 02:44:12;;;;;;;;;;;;;;;22.30;27.62;99495.81;4937001;29;876;-83
2021/11/11 02:46:38;;;;;;;;;;;;;;;22.15;27.83;99499.97;4945810;29;879;-84
2021/11/11 02:49:29;;;;;;;;;;;;;;;22.25;28.03;99486.94;4988364;28;860;-83
2021/11/11 02:51:55;;;;;;;;;;;;;;;22.29;27.89;99482.88;4967068;29;1302;-83
2021/11/11 02:54:20;;;;;;;;;;;;;;;22.16;27.97;99495.09;4962850;28;1295;-83
2021/11/11 02:56:46;;;;;;;;;;;;;;;22.11;27.89;99487.81;4975757;28;1131;-82
2021/11/11 02:59:12;;;;;;;;;;;;;;;22.10;28.49;99486.19;4936897;29;1347;-83
2021/11/11 03:01:38;;;;;;;;;;;;;;;22.37;27.65;99477.94;4936972;29;1955;-83
2021/11/11 03:04:03;;;;;;;;;;;;;;;22.46;27.60;99480.34;4933551;29;1030;-83
2021/11/11 03:06:29;;;;;;;;;;;;;;;22.22;27.90;99480.06;4939077;29;1222;-83
2021/11/11 03:08:55;;;;;;;;;;;;;;;22.16;27.94;99478.88;4937286;29;1161;-83
2021/11/11 03:11:41;;;;;;;;;;;;;;;22.14;28.11;99487.00;4884888;29;1349;-83
2021/11/11 03:14:08;;;;;;;;;;;;;;;22.62;27.43;99472.09;4883710;29;1126;-83
2021/11/11 03:16:34;;;;;;;;;;;;;;;22.62;27.16;99472.91;4903018;29;886;-82
2021/11/11 03:19:19;;;;;;;;;;;;;;;22.36;27.32;99471.47;4902052;29;998;-83
2021/11/11 03:21:45;;;;;;;;;;;;;;;22.33;27.40;99478.00;4901772;29;1966;-83
2021/11/11 03:24:11;;;;;;;;;;;;;;;22.20;27.34;99468.34;4902458;29;911;-82
2021/11/11 03:26:37;;;;;;;;;;;;;;;22.22;27.72;99473.59;4908096;29;953;-83
2021/11/11 03:29:03;;;;;;;;;;;;;;;22.41;27.78;99470.22;4936947;29;1220;-83
2021/11/11 03:31:52;;;;;;;;;;;;;;;22.23;28.05;99470.34;4940221;29;1135;-83
2021/11/11 03:34:19;;;;;;;;;;;;;;;22.26;27.96;99478.03;4898463;29;1283;-83
2021/11/11 03:36:45;;;;;;;;;;;;;;;22.62;27.36;99477.78;4876391;29;940;-83
2021/11/11 03:39:31;;;;;;;;;;;;;;;22.44;27.34;99471.44;4902425;29;922;-84
2021/11/11 03:41:57;;;;;;;;;;;;;;;22.06;28.31;99474.06;4895564;29;1899;-83
2021/11/11 03:44:23;;;;;;;;;;;;;;;22.07;27.77;99470.00;4888254;29;1072;-83
2021/11/11 03:46:50;;;;;;;;;;;;;;;22.20;27.75;99468.34;4861399;29;1259;-83
2021/11/11 03:49:16;;;;;;;;;;;;;;;22.55;27.51;99463.66;4845709;29;926;-82
2021/11/11 03:51:42;;;;;;;;;;;;;;;22.69;27.45;99460.72;4864385;29;1199;-83
2021/11/11 03:54:08;;;;;;;;;;;;;;;22.43;27.49;99458.47;4859978;29;891;-84
2021/11/11 03:56:35;;;;;;;;;;;;;;;22.22;27.51;99460.22;4812770;29;929;-83
2021/11/11 03:59:03;;;;;;;;;;;;;;;22.26;27.38;99455.34;4793084;29;1334;-82
2021/11/11 04:01:32;;;;;;;;;;;;;;;22.22;27.77;99448.88;4828901;29;1888;-83
2021/11/11 04:03:58;;;;;;;;;;;;;;;22.22;27.98;99457.38;4811849;29;1242;-81
2021/11/11 04:06:24;;;;;;;;;;;;;;;22.32;27.60;99459.34;5109361;22;4250;-81
2021/11/11 04:08:51;;;;;;;;;;;;;;;22.15;28.04;99457.44;5036475;28;1103;-80
2021/11/11 04:11:17;;;;;;;;;;;;;;;22.29;27.76;99465.88;5021437;28;1120;-81
2021/11/11 04:13:43;;;;;;;;;;;;;;;22.17;28.06;99457.81;4977979;29;1109;-81
2021/11/11 04:16:09;;;;;;;;;;;;;;;22.20;28.02;99456.19;5013542;28;1203;-81
2021/11/11 04:18:37;;;;;;;;;;;;;;;22.24;27.83;99460.63;4997532;28;1079;-81
2021/11/11 04:21:03;;;;;;;;;;;;;;;22.28;28.14;99452.91;4995482;28;1207;-80
2021/11/11 04:23:30;;;;;;;;;;;;;;;21.98;28.27;99455.47;4939120;29;1895;-81
2021/11/11 04:28:36;;;;;;;;;;;;;;;22.55;27.84;99460.81;5101405;28;1050;-80
2021/11/11 04:31:11;;;;;;;;;;;;;;;22.59;27.59;99450.28;5100991;28;1278;-82
2021/11/11 04:33:39;;;;;;;;;;;;;;;22.69;27.08;99455.06;5039687;28;1180;-81
2021/11/11 04:36:23;;;;;;;;;;;;;;;22.52;27.63;99442.59;5041467;28;1086;-80
2021/11/11 04:52:13;;;;;;;;;;;;;;;22.28;27.96;99441.56;4940119;28;979;-81
2021/11/11 05:05:13;;;;;;;;;;;;;;;22.08;28.40;99443.28;4913734;29;1133;-83
2021/11/11 05:07:39;;;;;;;;;;;;;;;22.25;27.86;99442.38;4901036;29;1248;-82
2021/11/11 05:10:07;;;;;;;;;;;;;;;22.16;28.12;99438.41;4898635;29;1241;-83
2021/11/11 05:12:32;;;;;;;;;;;;;;;22.50;27.95;99441.41;4886497;29;1171;-84
2021/11/11 05:14:58;;;;;;;;;;;;;;;22.69;27.53;99442.88;4928328;29;1117;-83
2021/11/11 05:17:24;;;;;;;;;;;;;;;22.42;27.98;99442.69;4930860;29;872;-84
2021/11/11 05:19:51;;;;;;;;;;;;;;;22.07;28.20;99435.97;4922688;29;1392;-83
2021/11/11 05:22:17;;;;;;;;;;;;;;;22.05;28.47;99444.09;4920107;29;1891;-83
2021/11/11 05:24:45;;;;;;;;;;;;;;;22.57;28.01;99442.16;4881869;29;1297;-83
2021/11/11 05:27:12;;;;;;;;;;;;;;;22.64;27.60;99438.47;4899310;29;1098;-82
2021/11/11 05:29:38;;;;;;;;;;;;;;;22.65;27.41;99433.59;4904104;29;1315;-83
2021/11/11 05:32:04;;;;;;;;;;;;;;;22.30;27.82;99444.78;4866897;29;1237;-83
2021/11/11 05:34:29;;;;;;;;;;;;;;;22.22;27.88;99437.53;4881565;29;1336;-83
2021/11/11 05:36:55;;;;;;;;;;;;;;;22.15;28.13;99437.59;4852686;29;1129;-82
2021/11/11 05:39:21;;;;;;;;;;;;;;;22.28;27.94;99441.56;4899787;29;1270;-83
2021/11/11 05:41:46;;;;;;;;;;;;;;;22.36;28.13;99443.13;4916546;28;1985;-82
2021/11/11 05:44:12;;;;;;;;;;;;;;;22.28;28.31;99441.56;4900734;29;1237;-83
2021/11/11 05:46:38;;;;;;;;;;;;;;;22.30;28.51;99433.44;4881699;29;1138;-83
2021/11/11 05:49:04;;;;;;;;;;;;;;;22.32;28.33;99433.81;4899971;29;1125;-82
2021/11/11 05:51:30;;;;;;;;;;;;;;;22.07;28.61;99427.47;5045129;22;4143;-81
2021/11/11 05:53:55;;;;;;;;;;;;;;;22.03;28.89;99429.53;5034309;28;1277;-79
2021/11/11 05:56:24;;;;;;;;;;;;;;;22.29;28.34;99437.50;5035622;28;1158;-80
2021/11/11 05:58:49;;;;;;;;;;;;;;;22.26;28.53;99444.00;5034456;28;1052;-79
2021/11/11 06:01:15;;;;;;;;;;;;;;;22.60;27.97;99443.38;5019452;28;1073;-81
2021/11/11 06:03:46;;;;;;;;;;;;;;;22.68;27.77;99436.38;4975617;29;1264;-81
2021/11/11 06:06:11;;;;;;;;;;;;;;;22.38;27.91;99439.06;4957393;29;1308;-81
2021/11/11 06:08:40;;;;;;;;;;;;;;;22.32;27.99;99430.97;4917171;29;1268;-81
2021/11/11 06:11:07;;;;;;;;;;;;;;;22.24;28.03;99435.09;5269747;22;4046;-80
2021/11/11 06:13:32;;;;;;;;;;;;;;;22.36;28.05;99437.44;5095785;28;1000;-81
2021/11/11 06:15:57;;;;;;;;;;;;;;;22.25;28.33;99435.91;5095540;28;1036;-80
2021/11/11 06:18:23;;;;;;;;;;;;;;;22.20;28.72;99431.47;5053659;28;894;-80
2021/11/11 06:20:57;;;;;;;;;;;;;;;22.16;28.59;99432.72;5022588;28;1168;-81
2021/11/11 06:23:24;;;;;;;;;;;;;;;22.05;29.00;99433.56;5037057;28;1906;-81
2021/11/11 06:25:49;;;;;;;;;;;;;;;22.34;28.39;99439.91;5022199;28;1136;-79
2021/11/11 06:28:14;;;;;;;;;;;;;;;22.58;27.96;99445.78;4994680;28;1131;-81
2021/11/11 06:30:40;;;;;;;;;;;;;;;22.48;28.14;99446.69;4975950;29;1238;-79
2021/11/11 06:33:11;;;;;;;;;;;;;;;22.23;28.49;99438.38;4921292;29;1078;-79
2021/11/11 06:35:38;;;;;;;;;;;;;;;22.15;28.32;99437.59;4899953;29;1557;-78
2021/11/11 06:38:04;;;;;;;;;;;;;;;22.10;28.60;99438.00;4899974;29;1000;-80
2021/11/11 06:40:30;;;;;;;;;;;;;;;22.39;28.48;99437.84;4847906;29;1011;-81
2021/11/11 06:42:56;;;;;;;;;;;;;;;22.54;27.85;99437.34;4810644;30;1961;-81
2021/11/11 06:45:21;;;;;;;;;;;;;;;22.42;28.03;99440.66;4810702;29;1100;-79
2021/11/11 06:47:47;;;;;;;;;;;;;;;22.14;28.39;99441.66;4796401;30;973;-81
2021/11/11 06:50:12;;;;;;;;;;;;;;;22.14;28.30;99438.81;4793512;29;1255;-79
2021/11/11 06:52:38;;;;;;;;;;;;;;;22.02;28.43;99433.56;4793922;29;902;-80
2021/11/11 06:55:05;;;;;;;;;;;;;;;22.45;28.27;99419.16;4792820;30;1012;-80
2021/11/11 06:57:30;;;;;;;;;;;;;;;22.52;27.98;99427.59;4778639;30;968;-80
2021/11/11 07:00:03;;;;;;;;;;;;;;;22.60;27.56;99429.19;4759456;30;1138;-80
2021/11/11 07:02:29;;;;;;;;;;;;;;;22.26;27.75;99432.66;4757751;30;1964;-81
2021/11/11 07:04:55;;;;;;;;;;;;;;;21.95;28.41;99427.97;4757255;30;1091;-80
2021/11/11 07:07:20;;;;;;;;;;;;;;;22.28;28.41;99424.56;4761531;30;1074;-81
2021/11/11 07:09:46;;;;;;;;;;;;;;;22.49;27.82;99422.78;4781953;30;1078;-80
2021/11/11 07:12:11;;;;;;;;;;;;;;;22.59;27.70;99422.69;4814486;29;1066;-80
2021/11/11 07:14:37;;;;;;;;;;;;;;;22.27;28.34;99417.25;4828859;29;954;-81
2021/11/11 07:17:03;;;;;;;;;;;;;;;22.20;28.25;99416.50;4873133;29;899;-81
2021/11/11 07:19:28;;;;;;;;;;;;;;;22.28;28.02;99413.22;4902819;29;963;-81
2021/11/11 07:21:54;;;;;;;;;;;;;;;22.30;28.33;99410.75;4887725;29;1949;-80
2021/11/11 07:24:20;;;;;;;;;;;;;;;22.14;28.54;99416.13;4917230;29;883;-81
2021/11/11 07:26:45;;;;;;;;;;;;;;;22.09;28.89;99406.00;4925486;29;1049;-81
2021/11/11 07:29:11;;;;;;;;;;;;;;;22.03;28.70;99413.34;4921150;29;947;-80
2021/11/11 07:31:36;;;;;;;;;;;;;;;22.11;28.58;99414.13;4936917;29;1023;-80
2021/11/11 07:34:01;;;;;;;;;;;;;;;22.20;28.96;99405.16;4954767;29;971;-81
2021/11/11 07:36:27;;;;;;;;;;;;;;;22.57;28.25;99412.97;4960277;29;1033;-80
2021/11/11 07:38:53;;;;;;;;;;;;;;;22.70;28.11;99411.25;4960004;29;928;-80
2021/11/11 07:41:19;;;;;;;;;;;;;;;22.11;28.46;99402.78;4963481;28;954;-82
2021/11/11 07:43:44;;;;;;;;;;;;;;;22.28;28.35;99407.53;4998192;28;1883;-80
2021/11/11 07:48:38;;;;;;;;;;;;;;;22.40;28.45;99405.44;5077169;28;1351;-81
2021/11/11 07:51:04;;;;;;;;;;;;;;;22.53;28.31;99403.69;5061360;28;778;-81
2021/11/11 07:53:30;;;;;;;;;;;;;;;22.28;28.45;99396.19;5076460;28;879;-79
2021/11/11 07:55:55;;;;;;;;;;;;;;;22.26;28.09;99404.31;4998693;28;1097;-78
2021/11/11 07:58:21;;;;;;;;;;;;;;;22.16;28.24;99402.34;4923865;29;1324;-81
2021/11/11 08:00:47;;;;;;;;;;;;;;;22.16;28.97;99399.50;4921872;29;912;-80
2021/11/11 08:03:12;;;;;;;;;;;;;;;22.50;28.15;99401.69;4905286;29;1899;-81
2021/11/11 08:05:39;;;;;;;;;;;;;;;22.48;28.26;99392.78;4939896;29;1004;-79
2021/11/11 08:08:05;;;;;;;;;;;;;;;22.27;28.27;99388.91;4924334;29;1051;-81
2021/11/11 08:10:31;;;;;;;;;;;;;;;22.35;27.82;99395.34;4921928;29;930;-79
2021/11/11 08:13:01;;;;;;;;;;;;;;;22.22;27.96;99392.16;4901780;29;1114;-81
2021/11/11 08:15:26;;;;;;;;;;;;;;;22.41;28.74;99388.00;4886483;29;1533;-80
2021/11/11 08:17:52;;;;;;;;;;;;;;;22.59;28.09;99393.53;4901672;29;1227;-81
2021/11/11 08:20:18;;;;;;;;;;;;;;;22.71;27.88;99384.50;4901643;29;1200;-80
2021/11/11 08:22:44;;;;;;;;;;;;;;;22.32;28.27;99384.81;4886359;29;1968;-80
2021/11/11 08:25:10;;;;;;;;;;;;;;;22.12;28.58;99398.72;4871235;29;895;-81
2021/11/11 08:27:36;;;;;;;;;;;;;;;22.12;28.31;99395.88;4913424;29;988;-80
2021/11/11 08:30:02;;;;;;;;;;;;;;;22.04;28.75;99391.47;4917017;29;956;-80
2021/11/11 08:32:28;;;;;;;;;;;;;;;22.44;28.64;99392.03;4887402;29;928;-81
2021/11/11 08:34:53;;;;;;;;;;;;;;;22.66;28.32;99387.78;4882613;29;862;-81
2021/11/11 08:37:19;;;;;;;;;;;;;;;22.44;28.06;99386.38;4898709;29;972;-81
2021/11/11 08:39:44;;;;;;;;;;;;;;;22.44;27.89;99392.03;4882877;29;1019;-81
2021/11/11 08:42:10;;;;;;;;;;;;;;;22.11;28.39;99385.78;4895024;29;1879;-81
2021/11/11 08:44:44;;;;;;;;;;;;;;;22.27;28.81;99383.22;4901433;29;1010;-81
2021/11/11 08:47:17;;;;;;;;;;;;;;;22.56;28.49;99391.53;4920006;29;1148;-81
2021/11/11 08:49:44;;;;;;;;;;;;;;;22.73;27.82;99393.38;4908766;29;1177;-80
2021/11/11 08:52:10;;;;;;;;;;;;;;;22.42;28.05;99388.78;4939415;29;1006;-79
2021/11/11 08:54:35;;;;;;;;;;;;;;;22.38;27.76;99382.34;4947748;29;903;-81
2021/11/11 08:57:01;;;;;;;;;;;;;;;22.36;27.57;99379.94;4978008;29;1005;-81
2021/11/11 08:59:26;;;;;;;;;;;;;;;22.22;28.17;99380.81;4977690;28;1053;-80
2021/11/11 09:01:53;;;;;;;;;;;;;;;22.35;28.53;99376.28;5177816;22;4079;-81
2021/11/11 09:04:19;;;;;;;;;;;;;;;22.56;28.05;99377.34;5016063;28;1232;-81
2021/11/11 09:06:45;;;;;;;;;;;;;;;22.67;27.79;99382.91;5017065;28;914;-81
2021/11/11 09:09:11;;;;;;;;;;;;;;;22.31;28.14;99371.88;5012593;28;953;-80
2021/11/11 09:11:37;;;;;;;;;;;;;;;22.09;28.50;99368.34;4958310;29;1444;-81
2021/11/11 09:14:02;;;;;;;;;;;;;;;22.08;28.04;99363.91;4938292;29;931;-81
2021/11/11 09:16:28;;;;;;;;;;;;;;;22.45;28.07;99368.13;4939415;29;1010;-81
2021/11/11 09:18:53;;;;;;;;;;;;;;;22.49;27.87;99363.22;4938381;29;1205;-80
2021/11/11 09:21:18;;;;;;;;;;;;;;;22.54;27.86;99357.09;4938571;29;1045;-81
2021/11/11 09:23:46;;;;;;;;;;;;;;;21.94;28.92;99355.50;4899544;29;1884;-80
2021/11/11 09:26:11;;;;;;;;;;;;;;;22.19;28.19;99356.16;4901748;29;1006;-80
2021/11/11 09:28:38;;;;;;;;;;;;;;;22.10;28.16;99355.78;4881472;29;1203;-82
2021/11/11 09:31:04;;;;;;;;;;;;;;;22.45;28.39;99351.09;4864079;29;1143;-80
2021/11/11 09:33:30;;;;;;;;;;;;;;;22.66;27.89;99347.25;4844649;29;936;-81
2021/11/11 09:35:57;;;;;;;;;;;;;;;22.40;27.96;99345.88;4830559;29;975;-80
2021/11/11 09:38:22;;;;;;;;;;;;;;;22.31;28.45;99344.31;4825757;29;1003;-80
2021/11/11 09:40:48;;;;;;;;;;;;;;;22.29;28.32;99334.63;4817429;29;1018;-80
2021/11/11 09:43:14;;;;;;;;;;;;;;;22.40;28.56;99343.03;4822177;29;1965;-80
2021/11/11 09:45:39;;;;;;;;;;;;;;;22.58;28.25;99338.00;4827290;29;951;-81
2021/11/11 09:48:04;;;;;;;;;;;;;;;22.82;27.64;99322.75;4826206;29;927;-81
2021/11/11 09:50:30;;;;;;;;;;;;;;;22.39;28.13;99330.09;4855311;29;934;-81
2021/11/11 09:52:59;;;;;;;;;;;;;;;22.31;28.32;99315.97;4863140;29;932;-81
2021/11/11 10:00:53;;;;;;;;;;;;;;;22.61;28.18;99294.63;4883874;29;927;-78
2021/11/11 10:03:19;;;;;;;;;;;;;;;22.49;28.34;99295.16;4936892;29;1887;-82
2021/11/11 10:05:45;;;;;;;;;;;;;;;22.43;28.23;99293.97;4881745;29;944;-80
2021/11/11 10:08:28;;;;;;;;;;;;;;;22.22;28.22;99295.78;4914341;29;1015;-81
2021/11/11 10:10:54;;;;;;;;;;;;;;;22.18;28.32;99297.84;5112539;22;4035;-81
2021/11/11 10:13:23;;;;;;;;;;;;;;;22.03;28.63;99287.81;5074842;28;1403;-81
2021/11/11 10:15:57;;;;;;;;;;;;;;;22.16;29.01;99280.44;5079740;28;945;-79
2021/11/11 10:18:35;;;;;;;;;;;;;;;22.65;28.33;99271.88;5078690;28;851;-81
2021/11/11 10:21:01;;;;;;;;;;;;;;;22.64;28.05;99276.75;5039985;28;945;-79
2021/11/11 10:23:27;;;;;;;;;;;;;;;22.41;28.41;99270.91;4998355;28;1906;-81
2021/11/11 10:26:15;;;;;;;;;;;;;;;22.46;27.91;99271.25;5000306;28;962;-80
2021/11/11 10:28:40;;;;;;;;;;;;;;;22.19;28.35;99279.63;4953562;29;1732;-77
2021/11/11 10:31:16;;;;;;;;;;;;;;;22.23;28.35;99269.06;4942063;29;978;-78
2021/11/11 10:34:00;;;;;;;;;;;;;;;22.48;28.82;99268.00;4916413;29;891;-78
2021/11/11 10:36:41;;;;;;;;;;;;;;;22.67;28.18;99256.03;4918894;29;820;-80
2021/11/11 10:39:10;;;;;;;;;;;;;;;22.34;28.49;99258.41;4918256;29;893;-78
2021/11/11 10:41:36;;;;;;;;;;;;;;;22.28;28.35;99256.47;4915913;29;1967;-77
2021/11/11 10:44:18;;;;;;;;;;;;;;;22.40;28.18;99253.09;4909004;29;1026;-78
2021/11/11 10:47:03;;;;;;;;;;;;;;;22.59;28.61;99240.34;4900172;29;846;-79
2021/11/11 10:49:29;;;;;;;;;;;;;;;22.68;28.27;99243.47;4898258;29;1041;-79
2021/11/11 10:51:55;;;;;;;;;;;;;;;22.31;28.57;99250.75;4917324;29;907;-79
2021/11/11 10:54:20;;;;;;;;;;;;;;;22.30;28.27;99234.97;4945046;29;934;-79
2021/11/11 10:56:46;;;;;;;;;;;;;;;22.39;27.90;99236.50;4975637;29;923;-78
2021/11/11 10:59:13;;;;;;;;;;;;;;;22.13;28.35;99229.47;4974131;29;953;-79
2021/11/11 11:01:38;;;;;;;;;;;;;;;22.27;28.26;99218.78;5023878;28;1879;-78
2021/11/11 11:04:03;;;;;;;;;;;;;;;22.24;28.46;99219.63;5022279;28;869;-79
2021/11/11 11:06:29;;;;;;;;;;;;;;;22.33;28.29;99217.13;5014330;28;857;-79
2021/11/11 11:08:57;;;;;;;;;;;;;;;22.19;28.75;99213.63;5013823;28;851;-78
2021/11/11 11:11:27;;;;;;;;;;;;;;;22.60;28.56;99216.41;5014883;28;1227;-78
2021/11/11 11:13:57;;;;;;;;;;;;;;;22.62;28.40;99211.13;5013797;28;1177;-79
2021/11/11 11:16:26;;;;;;;;;;;;;;;22.33;28.58;99217.13;5018488;28;879;-79
2021/11/11 11:18:57;;;;;;;;;;;;;;;21.87;29.39;99213.88;4993251;28;906;-79
2021/11/11 11:21:23;;;;;;;;;;;;;;;21.81;29.46;99207.81;4956377;29;1013;-79
2021/11/11 11:23:50;;;;;;;;;;;;;;;22.25;28.56;99204.22;4952815;29;1957;-79
2021/11/11 11:26:20;;;;;;;;;;;;;;;22.29;28.47;99205.00;4954934;29;868;-79
2021/11/11 11:29:04;;;;;;;;;;;;;;;22.34;28.99;99215.88;4952198;29;960;-79
2021/11/11 11:31:30;;;;;;;;;;;;;;;22.51;28.51;99216.09;4954973;29;999;-79
2021/11/11 11:33:55;;;;;;;;;;;;;;;22.55;28.23;99211.22;4953351;29;978;-78
2021/11/11 11:36:30;;;;;;;;;;;;;;;22.30;28.85;99206.59;4955682;29;1022;-79
2021/11/11 11:38:55;;;;;;;;;;;;;;;22.12;28.80;99208.78;4934229;29;900;-78
2021/11/11 11:41:23;;;;;;;;;;;;;;;22.00;29.04;99209.28;4935701;29;932;-78
2021/11/11 11:43:48;;;;;;;;;;;;;;;22.39;28.75;99202.47;4934496;29;1976;-79
2021/11/11 11:46:15;;;;;;;;;;;;;;;22.53;28.41;99203.09;4917780;29;982;-79
2021/11/11 11:48:42;;;;;;;;;;;;;;;22.56;27.99;99195.78;4878281;29;919;-79
2021/11/11 11:51:09;;;;;;;;;;;;;;;22.15;28.53;99188.13;4904318;29;916;-78
2021/11/11 11:53:40;;;;;;;;;;;;;;;22.15;28.50;99188.13;4951923;29;959;-79
2021/11/11 11:56:15;;;;;;;;;;;;;;;22.22;28.37;99193.72;4954810;29;978;-78
2021/11/11 11:58:46;;;;;;;;;;;;;;;22.54;28.82;99184.06;4935074;29;826;-79
2021/11/11 12:03:54;;;;;;;;;;;;;;;22.42;28.16;99187.44;4971086;29;1943;-78
2021/11/11 12:09:09;;;;;;;;;;;;;;;22.22;28.61;99188.03;4953145;29;1038;-78
2021/11/11 12:14:24;;;;;;;;;;;;;;;22.58;28.26;99176.31;4952797;29;904;-79
2021/11/11 12:39:33;;;;;;;;;;;;;;;22.19;28.33;99173.94;4934377;29;986;-79
2021/11/11 12:42:02;;;;;;;;;;;;;;;22.33;28.65;99171.75;4935012;29;1907;-78
2021/11/11 12:44:27;;;;;;;;;;;;;;;22.51;28.46;99173.56;4935572;29;886;-78
2021/11/11 12:46:53;;;;;;;;;;;;;;;22.74;28.17;99173.69;4918543;29;863;-79
2021/11/11 12:49:22;;;;;;;;;;;;;;;22.90;28.01;99169.44;4936501;29;962;-79
2021/11/11 12:52:07;;;;;;;;;;;;;;;22.55;28.00;99165.81;4953019;29;849;-78
2021/11/11 12:54:33;;;;;;;;;;;;;;;22.51;27.83;99156.53;4954301;28;937;-79
2021/11/11 12:57:01;;;;;;;;;;;;;;;22.37;28.20;99171.69;5011158;28;1236;-79
2021/11/11 12:59:27;;;;;;;;;;;;;;;22.24;28.36;99173.47;4971622;29;1157;-79
2021/11/11 13:01:54;;;;;;;;;;;;;;;22.22;28.43;99164.56;4961383;29;1888;-78
2021/11/11 13:04:19;;;;;;;;;;;;;;;22.27;28.59;99167.75;4951844;29;897;-79
2021/11/11 13:06:46;;;;;;;;;;;;;;;22.16;28.61;99161.38;4954067;29;958;-78
2021/11/11 13:09:19;;;;;;;;;;;;;;;22.21;28.58;99162.97;4951232;29;1140;-79
2021/11/11 13:11:48;;;;;;;;;;;;;;;22.68;28.38;99160.38;4953702;29;891;-78
2021/11/11 13:14:15;;;;;;;;;;;;;;;22.64;28.36;99160.44;4953900;29;982;-79
2021/11/11 13:16:41;;;;;;;;;;;;;;;22.51;28.08;99153.72;4972284;29;929;-79
2021/11/11 13:19:07;;;;;;;;;;;;;;;22.35;28.42;99157.13;4969815;29;911;-78
2021/11/11 13:21:46;;;;;;;;;;;;;;;22.19;28.55;99146.38;4952445;29;911;-78
2021/11/11 13:24:30;;;;;;;;;;;;;;;22.40;28.43;99141.69;4951180;29;946;-79
2021/11/11 14:00:16;;;;;;;;;;;;;;;22.30;28.74;99138.56;4856713;29;1091;-79
2021/11/11 15:46:13;;;;;;;;;;;;;;;22.25;28.91;99119.16;4907228;29;1225;-79
2021/11/11 16:23:33;;;;;;;;;;;;;;;22.48;28.93;99124.16;4832409;29;1951;-78
2021/11/11 16:28:30;;;;;;;;;;;;;;;22.23;28.69;99115.97;4875607;29;912;-78
2021/11/11 16:30:55;;;;;;;;;;;;;;;22.18;29.05;99113.59;4845342;29;996;-78
2021/11/11 16:33:21;;;;;;;;;;;;;;;22.29;29.13;99108.59;4893166;29;1125;-79
2021/11/11 16:35:46;;;;;;;;;;;;;;;22.12;29.33;99112.41;4877499;29;1032;-78
2021/11/11 16:38:12;;;;;;;;;;;;;;;22.33;28.90;99115.03;4879299;29;913;-78
2021/11/11 16:40:38;;;;;;;;;;;;;;;22.13;29.17;99111.22;4909714;29;1121;-78
2021/11/11 16:43:04;;;;;;;;;;;;;;;22.20;28.82;99113.16;4913923;29;1892;-78
2021/11/11 16:45:29;;;;;;;;;;;;;;;22.49;29.27;99116.47;4933452;29;978;-79
2021/11/11 16:47:55;;;;;;;;;;;;;;;22.63;28.84;99111.38;4932880;29;935;-79
2021/11/11 16:50:21;;;;;;;;;;;;;;;22.27;29.14;99105.38;4914658;29;915;-79
2021/11/11 16:52:47;;;;;;;;;;;;;;;22.19;28.97;99103.84;4895459;29;1241;-79
2021/11/11 16:55:12;;;;;;;;;;;;;;;22.20;28.88;99099.78;4894653;29;924;-79
2021/11/11 16:57:38;;;;;;;;;;;;;;;22.32;29.58;99110.56;4877819;29;930;-79
2021/11/11 17:00:04;;;;;;;;;;;;;;;22.69;28.80;99108.91;4861903;29;887;-78
2021/11/11 17:02:30;;;;;;;;;;;;;;;22.65;28.41;99099.63;4867238;29;1887;-79
2021/11/11 17:04:56;;;;;;;;;;;;;;;22.21;29.28;99095.72;4894836;29;959;-79
2021/11/11 17:07:23;;;;;;;;;;;;;;;22.35;28.82;99106.91;4897027;29;1007;-79